Sierra Nevada, Spain
Current Conditions -  °F | °C
As of 5:00 PM on Thursday 18 Dec 2014 (Local Time) from LEGR Reporting Station
Clear Clear  
Wind Chill: 63°   Ceiling: Unl
Heat Index: 63°   Visibility: 6mi
Dew Point: 43°   Wind: 2mph
Humidity: 48%   Direction: NA
Pressure: 30.27"   Gusts: NA
Location:  37.09°N, 3.39°W
Report Text: LEGR 181600Z VRB02KT CAVOK 17/06 Q1025
Loading
Personal Weather Stations






























Interactive Weather Map New forecast layout! Learn more

10-Day Weather Forecast

Advertisements
Track Severe Weather on mobile